Time;durP1;ratioP1;P1;durP2;ratioP2;P2;SDS_P1;SDS_P2;PMS_P1;PMS_P2;Temp;Humidity;BMP_temperature;BMP_pressure;BME280_temperature;BME280_humidity;BME280_pressure;Samples;Min_cycle;Max_cycle;Signal;HPM_P1;HPM_P2
2023/01/03 00:01:35;;;;;;;;;;;;;;;;;;5037213;28;19990;-63
2023/01/03 00:04:12;;;;;;;;;;;;;;;;;;5036428;28;20373;-62
2023/01/03 00:07:42;;;;;;;;;;;;;;;;;;;;;
2023/01/03 00:10:22;;;;;;;;;;;;;;;;;;5037194;28;19916;-63
2023/01/03 00:12:56;;;;;;;;;;;;;;;;;;5037242;28;19909;-63
2023/01/03 00:15:28;;;;;;;;;;;;;;;;;;5036878;28;19909;-63
2023/01/03 00:18:32;;;;;;;;;;;;;;;;;;5037119;28;20381;-62
2023/01/03 00:21:36;;;;;;;;;;;;;;;;;;5037314;28;19916;-63
2023/01/03 00:24:06;;;;;;;;;;;;;;;;;;5036887;28;20435;-63
2023/01/03 00:26:46;;;;;;;;;;;;;;;;;;5068570;28;20289;-63
2023/01/03 00:29:48;;;;;;;;;;;;;;;;;;5036559;28;19916;-63
2023/01/03 00:32:23;;;;;;;;;;;;;;;;;;5036962;28;19909;-63
2023/01/03 00:34:55;;;;;;;;;;;;;;;;;;5036774;28;19947;-63
2023/01/03 00:37:23;;;;;;;;;;;;;;;;;;5036055;28;19910;-63
2023/01/03 00:39:50;;;;;;;;;;;;;;;;;;5036806;28;19995;-63
2023/01/03 00:46:29;;;;;;;;;;;;;;;;;;5025673;28;19920;-61
2023/01/03 00:49:24;;;;;;;;;;;;;;;;;;5036344;28;19916;-62
2023/01/03 00:52:16;;;;;;;;;;;;;;;;;;5036542;28;19909;-62
2023/01/03 00:54:56;;;;;;;;;;;;;;;;;;5036507;28;19909;-62
2023/01/03 00:57:24;;;;;;;;;;;;;;;;;;5036406;28;19912;-62
2023/01/03 00:59:50;;;;;;;;;;;;;;;;;;5036600;28;20388;-62
2023/01/03 01:02:40;;;;;;;;;;;;;;;;;;5036203;28;19905;-63
2023/01/03 01:05:39;;;;;;;;;;;;;;;;;;5036481;28;19983;-63
2023/01/03 01:08:06;;;;;;;;;;;;;;;;;;5036349;28;19956;-62
2023/01/03 01:10:33;;;;;;;;;;;;;;;;;;5036161;28;19905;-63
2023/01/03 01:13:00;;;;;;;;;;;;;;;;;;5035080;28;19909;-63
2023/01/03 01:15:27;;;;;;;;;;;;;;;;;;5035759;28;19909;-63
2023/01/03 01:17:57;;;;;;;;;;;;;;;;;;5036086;28;20380;-63
2023/01/03 01:20:29;;;;;;;;;;;;;;;;;;5035961;28;19913;-62
2023/01/03 01:22:56;;;;;;;;;;;;;;;;;;5036055;28;19944;-62
2023/01/03 01:25:24;;;;;;;;;;;;;;;;;;5035867;28;20373;-63
2023/01/03 01:27:53;;;;;;;;;;;;;;;;;;5035928;28;19908;-62
2023/01/03 01:30:32;;;;;;;;;;;;;;;;;;5035957;28;20273;-62
2023/01/03 01:33:30;;;;;;;;;;;;;;;;;;5035859;28;19959;-63
2023/01/03 01:35:55;;;;;;;;;;;;;;;;;;5035823;28;19912;-63
2023/01/03 01:38:20;;;;;;;;;;;;;;;;;;5035593;28;19944;-63
2023/01/03 01:40:46;;;;;;;;;;;;;;;;;;5035624;28;19905;-63
2023/01/03 01:45:55;;;;;;;;;;;;;;;;;;5035537;28;19959;-64
2023/01/03 01:48:20;;;;;;;;;;;;;;;;;;5033289;28;19909;-63
2023/01/03 01:50:46;;;;;;;;;;;;;;;;;;5035144;28;19909;-63
2023/01/03 01:53:11;;;;;;;;;;;;;;;;;;5034271;28;19963;-63
2023/01/03 01:55:36;;;;;;;;;;;;;;;;;;5035414;28;19912;-63
2023/01/03 01:58:05;;;;;;;;;;;;;;;;;;5035294;28;20335;-63
2023/01/03 02:00:30;;;;;;;;;;;;;;;;;;5035101;28;19916;-63
2023/01/03 02:02:56;;;;;;;;;;;;;;;;;;5035301;28;19909;-63
2023/01/03 02:05:21;;;;;;;;;;;;;;;;;;5035084;28;19909;-63
2023/01/03 02:07:47;;;;;;;;;;;;;;;;;;5034953;28;19919;-63
2023/01/03 02:10:12;;;;;;;;;;;;;;;;;;5034941;28;19932;-64
2023/01/03 02:15:21;;;;;;;;;;;;;;;;;;5034904;28;19990;-63
2023/01/03 02:17:47;;;;;;;;;;;;;;;;;;5034801;28;19908;-63
2023/01/03 02:20:12;;;;;;;;;;;;;;;;;;5034933;28;19913;-62
2023/01/03 02:22:37;;;;;;;;;;;;;;;;;;5034940;28;19971;-63
2023/01/03 02:25:03;;;;;;;;;;;;;;;;;;5034701;28;19917;-62
2023/01/03 02:27:28;;;;;;;;;;;;;;;;;;5033341;28;19916;-63
2023/01/03 02:29:54;;;;;;;;;;;;;;;;;;5034912;28;19991;-63
2023/01/03 02:32:19;;;;;;;;;;;;;;;;;;5034678;28;19983;-63
2023/01/03 02:34:45;;;;;;;;;;;;;;;;;;5034637;28;19909;-63
2023/01/03 02:37:11;;;;;;;;;;;;;;;;;;5034427;28;19909;-63
2023/01/03 02:39:37;;;;;;;;;;;;;;;;;;5034644;28;19905;-63
2023/01/03 02:44:46;;;;;;;;;;;;;;;;;;5034438;28;20360;-63
2023/01/03 02:47:11;;;;;;;;;;;;;;;;;;5034524;28;19909;-63
2023/01/03 02:49:37;;;;;;;;;;;;;;;;;;5034357;28;20084;-63
2023/01/03 02:52:03;;;;;;;;;;;;;;;;;;5033071;28;20032;-63
2023/01/03 02:54:28;;;;;;;;;;;;;;;;;;5034270;28;19959;-64
2023/01/03 02:56:53;;;;;;;;;;;;;;;;;;5034302;28;19909;-64
2023/01/03 02:59:18;;;;;;;;;;;;;;;;;;5034090;28;19905;-64
2023/01/03 03:01:44;;;;;;;;;;;;;;;;;;5032974;28;19916;-64
2023/01/03 03:04:09;;;;;;;;;;;;;;;;;;5034161;28;19905;-64
2023/01/03 03:06:34;;;;;;;;;;;;;;;;;;5034211;28;19913;-64
2023/01/03 03:09:00;;;;;;;;;;;;;;;;;;5034245;28;19909;-64
2023/01/03 03:14:09;;;;;;;;;;;;;;;;;;5034149;28;20380;-64
2023/01/03 03:16:46;;;;;;;;;;;;;;;;;;5034298;28;19905;-64
2023/01/03 03:19:11;;;;;;;;;;;;;;;;;;5032865;28;19920;-64
2023/01/03 03:24:49;;;;;;;;;;;;;;;;;;5011458;28;19909;-64
2023/01/03 03:29:58;;;;;;;;;;;;;;;;;;5034049;28;19963;-63
2023/01/03 03:32:23;;;;;;;;;;;;;;;;;;5033835;28;19972;-63
2023/01/03 03:34:48;;;;;;;;;;;;;;;;;;5034042;28;20471;-64
2023/01/03 03:37:15;;;;;;;;;;;;;;;;;;5034052;28;19909;-64
2023/01/03 03:45:08;;;;;;;;;;;;;;;;;;5033818;28;19931;-64
2023/01/03 03:47:33;;;;;;;;;;;;;;;;;;5033713;28;19906;-64
2023/01/03 03:49:58;;;;;;;;;;;;;;;;;;5033841;28;20365;-63
2023/01/03 03:52:24;;;;;;;;;;;;;;;;;;5033993;28;19909;-63
2023/01/03 03:54:49;;;;;;;;;;;;;;;;;;5033594;28;19905;-63
2023/01/03 03:57:14;;;;;;;;;;;;;;;;;;5033880;28;19916;-63
2023/01/03 03:59:39;;;;;;;;;;;;;;;;;;5033915;28;19940;-64
2023/01/03 04:02:05;;;;;;;;;;;;;;;;;;5033792;28;19915;-62
2023/01/03 04:04:30;;;;;;;;;;;;;;;;;;5033741;28;19912;-62
2023/01/03 04:06:55;;;;;;;;;;;;;;;;;;5033439;28;19913;-62
2023/01/03 04:09:20;;;;;;;;;;;;;;;;;;5033545;28;20395;-63
2023/01/03 04:11:46;;;;;;;;;;;;;;;;;;5035678;28;20008;-62
2023/01/03 04:14:11;;;;;;;;;;;;;;;;;;5037084;28;19951;-62
2023/01/03 04:16:36;;;;;;;;;;;;;;;;;;5036865;28;19909;-62
2023/01/03 04:19:02;;;;;;;;;;;;;;;;;;5037192;28;20063;-62
2023/01/03 04:21:27;;;;;;;;;;;;;;;;;;5036943;28;19925;-63
2023/01/03 04:23:52;;;;;;;;;;;;;;;;;;5037078;28;19916;-64
2023/01/03 04:26:18;;;;;;;;;;;;;;;;;;5036926;28;19944;-64
2023/01/03 04:28:43;;;;;;;;;;;;;;;;;;5036917;28;19905;-64
2023/01/03 04:31:08;;;;;;;;;;;;;;;;;;5036953;28;19956;-64
2023/01/03 04:33:33;;;;;;;;;;;;;;;;;;5036825;28;19959;-65
2023/01/03 04:35:59;;;;;;;;;;;;;;;;;;5036969;28;19913;-64
2023/01/03 04:38:24;;;;;;;;;;;;;;;;;;5036846;28;19913;-64
2023/01/03 04:40:49;;;;;;;;;;;;;;;;;;5036789;28;20360;-63
2023/01/03 04:45:58;;;;;;;;;;;;;;;;;;5036537;28;20371;-62
2023/01/03 04:48:24;;;;;;;;;;;;;;;;;;5036843;28;19906;-63
2023/01/03 04:50:49;;;;;;;;;;;;;;;;;;5036456;28;19909;-63
2023/01/03 04:53:16;;;;;;;;;;;;;;;;;;5036333;28;20368;-64
2023/01/03 04:55:41;;;;;;;;;;;;;;;;;;5036704;28;19905;-64
2023/01/03 04:58:06;;;;;;;;;;;;;;;;;;5036614;28;19916;-64
2023/01/03 05:00:32;;;;;;;;;;;;;;;;;;5036674;28;19909;-65
2023/01/03 05:02:58;;;;;;;;;;;;;;;;;;5036667;28;19913;-64
2023/01/03 05:05:23;;;;;;;;;;;;;;;;;;5036548;28;19916;-64
2023/01/03 05:07:48;;;;;;;;;;;;;;;;;;5036755;28;20300;-68
2023/01/03 05:10:14;;;;;;;;;;;;;;;;;;5036199;28;19915;-70
2023/01/03 05:29:02;;;;;;;;;;;;;;;;;;4991125;28;20377;-63
2023/01/03 05:31:27;;;;;;;;;;;;;;;;;;4992946;28;19913;-62
2023/01/03 05:33:52;;;;;;;;;;;;;;;;;;4992963;28;19920;-63
2023/01/03 05:36:18;;;;;;;;;;;;;;;;;;4993157;28;19917;-62
2023/01/03 05:38:43;;;;;;;;;;;;;;;;;;4993056;28;20285;-62
2023/01/03 05:41:08;;;;;;;;;;;;;;;;;;4992457;28;19914;-63
2023/01/03 05:43:33;;;;;;;;;;;;;;;;;;4992872;28;20004;-63
2023/01/03 05:45:58;;;;;;;;;;;;;;;;;;4991068;28;19973;-63
2023/01/03 05:48:24;;;;;;;;;;;;;;;;;;4992418;28;19940;-63
2023/01/03 05:50:49;;;;;;;;;;;;;;;;;;4992330;28;19921;-63
2023/01/03 05:53:14;;;;;;;;;;;;;;;;;;4992423;28;19924;-63
2023/01/03 05:55:40;;;;;;;;;;;;;;;;;;4992493;28;19953;-62
2023/01/03 05:58:05;;;;;;;;;;;;;;;;;;4995615;28;19917;-62
2023/01/03 06:00:30;;;;;;;;;;;;;;;;;;4995529;28;19909;-62
2023/01/03 06:02:55;;;;;;;;;;;;;;;;;;4995558;28;19961;-62
2023/01/03 06:05:20;;;;;;;;;;;;;;;;;;4995170;28;19910;-62
2023/01/03 06:07:46;;;;;;;;;;;;;;;;;;4993294;28;19909;-62
2023/01/03 06:10:11;;;;;;;;;;;;;;;;;;4994445;28;19957;-62
2023/01/03 06:12:36;;;;;;;;;;;;;;;;;;4994426;28;20000;-63
2023/01/03 06:15:01;;;;;;;;;;;;;;;;;;4993037;28;20321;-63
2023/01/03 06:20:11;;;;;;;;;;;;;;;;;;4993681;28;19910;-63
2023/01/03 06:22:36;;;;;;;;;;;;;;;;;;4995047;28;20417;-63
2023/01/03 06:25:01;;;;;;;;;;;;;;;;;;4994750;28;19909;-63
2023/01/03 06:27:27;;;;;;;;;;;;;;;;;;5000755;28;19921;-64
2023/01/03 06:29:52;;;;;;;;;;;;;;;;;;4997343;28;19953;-64
2023/01/03 06:32:17;;;;;;;;;;;;;;;;;;5014845;28;19909;-62
2023/01/03 06:34:42;;;;;;;;;;;;;;;;;;5014504;28;19909;-62
2023/01/03 06:37:08;;;;;;;;;;;;;;;;;;5015321;28;19943;-62
2023/01/03 06:39:33;;;;;;;;;;;;;;;;;;5014817;28;20316;-70
2023/01/03 06:42:38;;;;;;;;;;;;;;;;;;5015125;28;20413;-62
2023/01/03 06:53:10;;;;;;;;;;;;;;;;;;5014458;28;19910;-62
2023/01/03 06:53:12;;;;;;;;;;;;;;;;;;5014559;28;19956;-62
2023/01/03 06:55:37;;;;;;;;;;;;;;;;;;5013785;28;19916;-62
2023/01/03 06:58:02;;;;;;;;;;;;;;;;;;5013941;28;20000;-62
2023/01/03 07:00:27;;;;;;;;;;;;;;;;;;5013329;28;20350;-62
2023/01/03 07:02:53;;;;;;;;;;;;;;;;;;4996081;28;19913;-62
2023/01/03 07:05:18;;;;;;;;;;;;;;;;;;4995939;28;19953;-62
2023/01/03 07:07:43;;;;;;;;;;;;;;;;;;5013885;28;20373;-62
2023/01/03 07:10:08;;;;;;;;;;;;;;;;;;5014054;28;19909;-62
2023/01/03 07:15:17;;;;;;;;;;;;;;;;;;5014235;28;19943;-62
2023/01/03 07:17:42;;;;;;;;;;;;;;;;;;5014103;28;19906;-62
2023/01/03 07:20:07;;;;;;;;;;;;;;;;;;5014073;28;19909;-62
2023/01/03 07:22:33;;;;;;;;;;;;;;;;;;5014144;28;19913;-62
2023/01/03 07:24:58;;;;;;;;;;;;;;;;;;5014262;28;19933;-62
2023/01/03 07:27:23;;;;;;;;;;;;;;;;;;5013898;28;19968;-62
2023/01/03 07:29:48;;;;;;;;;;;;;;;;;;5014014;28;19912;-62
2023/01/03 07:32:13;;;;;;;;;;;;;;;;;;5014051;28;19963;-62
2023/01/03 07:34:40;;;;;;;;;;;;;;;;;;5013977;28;20004;-62
2023/01/03 07:37:05;;;;;;;;;;;;;;;;;;5014059;28;19953;-62
2023/01/03 07:39:30;;;;;;;;;;;;;;;;;;5013933;28;19906;-62
2023/01/03 07:44:41;;;;;;;;;;;;;;;;;;4964305;28;19910;-62
2023/01/03 07:47:06;;;;;;;;;;;;;;;;;;4999000;28;19920;-62
2023/01/03 07:49:31;;;;;;;;;;;;;;;;;;5017951;28;19917;-62
2023/01/03 07:51:56;;;;;;;;;;;;;;;;;;5017662;28;19906;-62
2023/01/03 07:54:22;;;;;;;;;;;;;;;;;;5017588;28;20370;-62
2023/01/03 07:56:47;;;;;;;;;;;;;;;;;;5017526;28;19991;-62
2023/01/03 07:59:12;;;;;;;;;;;;;;;;;;5017546;28;19909;-62
2023/01/03 08:01:37;;;;;;;;;;;;;;;;;;5017471;28;19916;-62
2023/01/03 08:04:02;;;;;;;;;;;;;;;;;;5000317;28;20008;-62
2023/01/03 08:06:28;;;;;;;;;;;;;;;;;;5017333;28;20289;-62
2023/01/03 08:14:28;;;;;;;;;;;;;;;;;;5017219;28;19992;-62
2023/01/03 08:16:53;;;;;;;;;;;;;;;;;;5017477;28;19956;-62
2023/01/03 08:19:18;;;;;;;;;;;;;;;;;;4999735;28;19909;-62
2023/01/03 08:21:44;;;;;;;;;;;;;;;;;;5017109;28;19936;-62
2023/01/03 08:24:09;;;;;;;;;;;;;;;;;;4999610;28;19909;-62
2023/01/03 08:26:34;;;;;;;;;;;;;;;;;;5017244;28;19924;-62
2023/01/03 08:28:59;;;;;;;;;;;;;;;;;;5016896;28;19924;-62
2023/01/03 08:31:25;;;;;;;;;;;;;;;;;;5016994;28;19909;-62
2023/01/03 08:33:50;;;;;;;;;;;;;;;;;;5016901;28;19967;-62
2023/01/03 08:36:15;;;;;;;;;;;;;;;;;;5016840;28;19910;-62
2023/01/03 08:38:41;;;;;;;;;;;;;;;;;;5016820;28;19916;-62
2023/01/03 08:41:07;;;;;;;;;;;;;;;;;;4999307;28;19909;-62
2023/01/03 08:43:32;;;;;;;;;;;;;;;;;;5016761;28;20276;-62
2023/01/03 08:45:57;;;;;;;;;;;;;;;;;;5016544;28;20376;-62
2023/01/03 08:48:22;;;;;;;;;;;;;;;;;;5016649;28;20004;-62
2023/01/03 08:50:47;;;;;;;;;;;;;;;;;;5016688;28;19938;-62
2023/01/03 08:53:13;;;;;;;;;;;;;;;;;;5016539;28;19972;-62
2023/01/03 08:55:38;;;;;;;;;;;;;;;;;;5016497;28;19909;-62
2023/01/03 08:58:03;;;;;;;;;;;;;;;;;;4998706;28;19999;-62
2023/01/03 09:00:29;;;;;;;;;;;;;;;;;;5016435;28;19905;-62
2023/01/03 09:02:54;;;;;;;;;;;;;;;;;;5016392;28;19975;-62
2023/01/03 09:05:19;;;;;;;;;;;;;;;;;;5016238;28;19914;-62
2023/01/03 09:07:44;;;;;;;;;;;;;;;;;;5016374;28;19925;-62
2023/01/03 09:10:10;;;;;;;;;;;;;;;;;;5016252;28;19905;-62
2023/01/03 09:12:35;;;;;;;;;;;;;;;;;;5016153;28;20376;-62
2023/01/03 09:15:02;;;;;;;;;;;;;;;;;;4998669;28;19957;-62
2023/01/03 09:17:27;;;;;;;;;;;;;;;;;;5016097;28;19960;-62
2023/01/03 09:19:52;;;;;;;;;;;;;;;;;;5016154;28;19945;-62
2023/01/03 09:22:17;;;;;;;;;;;;;;;;;;4998520;28;19932;-62
2023/01/03 09:24:42;;;;;;;;;;;;;;;;;;5015926;28;19913;-62
2023/01/03 09:27:07;;;;;;;;;;;;;;;;;;5015689;28;19924;-62
2023/01/03 09:29:33;;;;;;;;;;;;;;;;;;5015880;28;19909;-62
2023/01/03 09:32:01;;;;;;;;;;;;;;;;;;4998272;28;19912;-62
2023/01/03 09:34:27;;;;;;;;;;;;;;;;;;5015737;28;19909;-62
2023/01/03 09:36:52;;;;;;;;;;;;;;;;;;4998174;28;19916;-62
2023/01/03 09:39:17;;;;;;;;;;;;;;;;;;4998154;28;19909;-62
2023/01/03 09:41:42;;;;;;;;;;;;;;;;;;5015634;28;19913;-62
2023/01/03 09:44:07;;;;;;;;;;;;;;;;;;4998088;28;20365;-62
2023/01/03 09:46:34;;;;;;;;;;;;;;;;;;4997877;28;19917;-62
2023/01/03 09:48:59;;;;;;;;;;;;;;;;;;5015706;28;19956;-62
2023/01/03 10:05:03;;;;;;;;;;;;;;;;;;5015195;28;20296;-62
2023/01/03 10:07:28;;;;;;;;;;;;;;;;;;5015172;28;19916;-62
2023/01/03 10:09:53;;;;;;;;;;;;;;;;;;4996793;28;19923;-62
2023/01/03 10:12:18;;;;;;;;;;;;;;;;;;5015113;28;19976;-62
2023/01/03 10:14:44;;;;;;;;;;;;;;;;;;5015069;28;19975;-62
2023/01/03 10:17:09;;;;;;;;;;;;;;;;;;5015292;28;19909;-62
2023/01/03 10:19:34;;;;;;;;;;;;;;;;;;5015318;28;19916;-62
2023/01/03 10:21:59;;;;;;;;;;;;;;;;;;5014933;28;19909;-62
2023/01/03 10:24:24;;;;;;;;;;;;;;;;;;5014887;28;19913;-62
2023/01/03 10:26:50;;;;;;;;;;;;;;;;;;5014772;28;20000;-62
2023/01/03 10:29:15;;;;;;;;;;;;;;;;;;4997219;28;19913;-62
2023/01/03 10:31:40;;;;;;;;;;;;;;;;;;4997120;28;19948;-62
2023/01/03 10:34:05;;;;;;;;;;;;;;;;;;4997282;28;19909;-62
2023/01/03 10:36:30;;;;;;;;;;;;;;;;;;5014706;28;20337;-62
2023/01/03 10:38:56;;;;;;;;;;;;;;;;;;5014884;28;19917;-62
2023/01/03 10:41:21;;;;;;;;;;;;;;;;;;5014620;28;19909;-62
2023/01/03 10:43:46;;;;;;;;;;;;;;;;;;4997051;28;20020;-62
2023/01/03 10:46:11;;;;;;;;;;;;;;;;;;5014644;28;19914;-62
2023/01/03 10:48:37;;;;;;;;;;;;;;;;;;5014492;28;20284;-62
2023/01/03 10:51:02;;;;;;;;;;;;;;;;;;4996960;28;19916;-62
2023/01/03 10:53:27;;;;;;;;;;;;;;;;;;5014449;28;19906;-62
2023/01/03 10:55:53;;;;;;;;;;;;;;;;;;5014412;28;20016;-62
2023/01/03 10:58:18;;;;;;;;;;;;;;;;;;5014444;28;19916;-62
2023/01/03 11:00:43;;;;;;;;;;;;;;;;;;5014426;28;19913;-62
2023/01/03 11:03:09;;;;;;;;;;;;;;;;;;5014288;28;20386;-62
2023/01/03 11:05:34;;;;;;;;;;;;;;;;;;5014197;28;19913;-62
2023/01/03 11:07:59;;;;;;;;;;;;;;;;;;5014235;28;19959;-62
2023/01/03 11:10:24;;;;;;;;;;;;;;;;;;5014250;28;20380;-62
2023/01/03 11:12:49;;;;;;;;;;;;;;;;;;5014208;28;20411;-62
2023/01/03 11:15:15;;;;;;;;;;;;;;;;;;5014232;28;19913;-62
2023/01/03 11:17:40;;;;;;;;;;;;;;;;;;5014246;28;19912;-62
2023/01/03 11:20:05;;;;;;;;;;;;;;;;;;5015327;28;19916;-62
2023/01/03 11:22:30;;;;;;;;;;;;;;;;;;5018152;28;19917;-62
2023/01/03 11:24:55;;;;;;;;;;;;;;;;;;5018175;28;20266;-62
2023/01/03 11:27:21;;;;;;;;;;;;;;;;;;5000412;28;19917;-62
2023/01/03 11:29:46;;;;;;;;;;;;;;;;;;5018088;28;20361;-62
2023/01/03 11:32:11;;;;;;;;;;;;;;;;;;5018012;28;19909;-62
2023/01/03 11:34:36;;;;;;;;;;;;;;;;;;5017988;28;19999;-62
2023/01/03 11:37:01;;;;;;;;;;;;;;;;;;5017953;28;20285;-62
2023/01/03 11:39:27;;;;;;;;;;;;;;;;;;5017912;28;19909;-62
2023/01/03 11:41:52;;;;;;;;;;;;;;;;;;5018143;28;19916;-62
2023/01/03 11:44:17;;;;;;;;;;;;;;;;;;5017854;28;19909;-62
2023/01/03 11:46:43;;;;;;;;;;;;;;;;;;5017938;28;19909;-62
2023/01/03 11:49:08;;;;;;;;;;;;;;;;;;5017737;28;19910;-62
2023/01/03 11:51:33;;;;;;;;;;;;;;;;;;5000250;28;19909;-62
2023/01/03 11:54:00;;;;;;;;;;;;;;;;;;5000066;28;20345;-62
2023/01/03 11:56:25;;;;;;;;;;;;;;;;;;5017719;28;19949;-62
2023/01/03 11:58:50;;;;;;;;;;;;;;;;;;5017652;28;20360;-62
2023/01/03 12:01:15;;;;;;;;;;;;;;;;;;5017537;28;20419;-62
2023/01/03 12:03:41;;;;;;;;;;;;;;;;;;5017516;28;20289;-62
2023/01/03 12:06:07;;;;;;;;;;;;;;;;;;5017444;28;19956;-62
2023/01/03 12:08:32;;;;;;;;;;;;;;;;;;5017513;28;19909;-62
2023/01/03 12:10:57;;;;;;;;;;;;;;;;;;4999794;28;19960;-62
2023/01/03 12:13:22;;;;;;;;;;;;;;;;;;5017340;28;19913;-62
2023/01/03 12:15:47;;;;;;;;;;;;;;;;;;5017228;28;19909;-62
2023/01/03 12:18:13;;;;;;;;;;;;;;;;;;5017192;28;19960;-62
2023/01/03 12:20:38;;;;;;;;;;;;;;;;;;5017277;28;20002;-62
2023/01/03 12:23:03;;;;;;;;;;;;;;;;;;5017101;28;19909;-62
2023/01/03 12:25:29;;;;;;;;;;;;;;;;;;4999558;28;19914;-62
2023/01/03 12:27:55;;;;;;;;;;;;;;;;;;5016889;28;19922;-62
2023/01/03 12:30:20;;;;;;;;;;;;;;;;;;5000126;28;20308;-62
2023/01/03 12:32:46;;;;;;;;;;;;;;;;;;5016072;28;19959;-62
2023/01/03 12:35:11;;;;;;;;;;;;;;;;;;5016919;28;19964;-62
2023/01/03 12:37:36;;;;;;;;;;;;;;;;;;5016866;28;19905;-62
2023/01/03 12:40:01;;;;;;;;;;;;;;;;;;5016860;28;19909;-62
2023/01/03 12:42:26;;;;;;;;;;;;;;;;;;5016781;28;20314;-62
2023/01/03 12:44:52;;;;;;;;;;;;;;;;;;5016721;28;19909;-62
2023/01/03 12:47:17;;;;;;;;;;;;;;;;;;5016621;28;20357;-62
2023/01/03 12:49:42;;;;;;;;;;;;;;;;;;5016748;28;19966;-62
2023/01/03 12:52:07;;;;;;;;;;;;;;;;;;5016588;28;19909;-62
2023/01/03 12:54:33;;;;;;;;;;;;;;;;;;5016566;28;19912;-62
2023/01/03 12:56:58;;;;;;;;;;;;;;;;;;5016487;28;19935;-62
2023/01/03 12:59:24;;;;;;;;;;;;;;;;;;5016440;28;20314;-62
2023/01/03 13:01:52;;;;;;;;;;;;;;;;;;5016414;28;19917;-70
2023/01/03 13:04:17;;;;;;;;;;;;;;;;;;5031596;28;19960;-70
2023/01/03 13:06:42;;;;;;;;;;;;;;;;;;4998874;28;19917;-69
2023/01/03 13:09:08;;;;;;;;;;;;;;;;;;5016485;28;19916;-69
2023/01/03 13:11:34;;;;;;;;;;;;;;;;;;5016378;28;19948;-69
2023/01/03 13:13:59;;;;;;;;;;;;;;;;;;4998618;28;19909;-69
2023/01/03 13:16:24;;;;;;;;;;;;;;;;;;5016154;28;19960;-69
2023/01/03 13:18:49;;;;;;;;;;;;;;;;;;5016081;28;19906;-69
2023/01/03 13:21:14;;;;;;;;;;;;;;;;;;5016011;28;20411;-69
2023/01/03 13:23:40;;;;;;;;;;;;;;;;;;5015996;28;19909;-69
2023/01/03 13:26:05;;;;;;;;;;;;;;;;;;5015873;28;19942;-69
2023/01/03 13:28:30;;;;;;;;;;;;;;;;;;5015747;28;19917;-69
2023/01/03 13:30:55;;;;;;;;;;;;;;;;;;5015847;28;20071;-69
2023/01/03 13:33:20;;;;;;;;;;;;;;;;;;5015914;28;19910;-69
2023/01/03 13:35:46;;;;;;;;;;;;;;;;;;5015733;28;19928;-69
2023/01/03 13:38:11;;;;;;;;;;;;;;;;;;5015759;28;19910;-69
2023/01/03 13:40:36;;;;;;;;;;;;;;;;;;5015698;28;20274;-69
2023/01/03 13:43:02;;;;;;;;;;;;;;;;;;5015259;28;20005;-69
2023/01/03 13:45:27;;;;;;;;;;;;;;;;;;5015645;28;20254;-69
2023/01/03 13:47:52;;;;;;;;;;;;;;;;;;5015095;28;19933;-69
2023/01/03 13:50:17;;;;;;;;;;;;;;;;;;4998103;28;20399;-69
2023/01/03 13:52:43;;;;;;;;;;;;;;;;;;5015437;28;20277;-69
2023/01/03 13:55:08;;;;;;;;;;;;;;;;;;5015439;28;20269;-69
2023/01/03 13:57:33;;;;;;;;;;;;;;;;;;5015311;28;19910;-69
2023/01/03 13:59:58;;;;;;;;;;;;;;;;;;5015543;28;19944;-69
2023/01/03 14:02:24;;;;;;;;;;;;;;;;;;5015270;28;20357;-69
2023/01/03 14:04:50;;;;;;;;;;;;;;;;;;5015240;28;20062;-69
2023/01/03 14:07:15;;;;;;;;;;;;;;;;;;4997539;28;20000;-69
2023/01/03 14:09:40;;;;;;;;;;;;;;;;;;5015168;28;19909;-69
2023/01/03 14:12:05;;;;;;;;;;;;;;;;;;4997636;28;19965;-69
2023/01/03 14:14:31;;;;;;;;;;;;;;;;;;4981197;28;19916;-69
2023/01/03 14:16:56;;;;;;;;;;;;;;;;;;5015041;28;19909;-69
2023/01/03 14:19:22;;;;;;;;;;;;;;;;;;5015169;28;19915;-69
2023/01/03 14:21:47;;;;;;;;;;;;;;;;;;5014950;28;20254;-69
2023/01/03 14:24:12;;;;;;;;;;;;;;;;;;5015095;28;19912;-69
2023/01/03 14:26:37;;;;;;;;;;;;;;;;;;5015137;28;19981;-70
2023/01/03 14:29:03;;;;;;;;;;;;;;;;;;5015156;28;20392;-69
2023/01/03 14:31:28;;;;;;;;;;;;;;;;;;5015456;28;19959;-69
2023/01/03 14:33:53;;;;;;;;;;;;;;;;;;5014490;28;19909;-69
2023/01/03 14:36:19;;;;;;;;;;;;;;;;;;5014394;28;20007;-69
2023/01/03 14:38:45;;;;;;;;;;;;;;;;;;5014679;28;19917;-69
2023/01/03 14:41:10;;;;;;;;;;;;;;;;;;5014381;28;19917;-69
2023/01/03 14:43:35;;;;;;;;;;;;;;;;;;4996901;28;19909;-69
2023/01/03 14:46:00;;;;;;;;;;;;;;;;;;5014330;28;19944;-70
2023/01/03 14:48:26;;;;;;;;;;;;;;;;;;5014320;28;20000;-70
2023/01/03 14:50:51;;;;;;;;;;;;;;;;;;5014328;28;20040;-70
2023/01/03 14:53:16;;;;;;;;;;;;;;;;;;4996763;28;19959;-70
2023/01/03 14:55:42;;;;;;;;;;;;;;;;;;5013792;28;19936;-71
2023/01/03 14:58:07;;;;;;;;;;;;;;;;;;4996754;28;19906;-71
2023/01/03 15:00:32;;;;;;;;;;;;;;;;;;4996370;28;19956;-71
2023/01/03 15:02:57;;;;;;;;;;;;;;;;;;5014066;28;19909;-71
2023/01/03 15:05:23;;;;;;;;;;;;;;;;;;4996422;28;20421;-71
2023/01/03 15:07:48;;;;;;;;;;;;;;;;;;4996579;28;20369;-71
2023/01/03 15:10:13;;;;;;;;;;;;;;;;;;5014129;28;19910;-71
2023/01/03 15:12:39;;;;;;;;;;;;;;;;;;5014070;28;19906;-71
2023/01/03 15:15:04;;;;;;;;;;;;;;;;;;4980211;28;19917;-71
2023/01/03 15:17:29;;;;;;;;;;;;;;;;;;5013924;28;19917;-71
2023/01/03 15:19:54;;;;;;;;;;;;;;;;;;4996309;28;19992;-71
2023/01/03 15:22:20;;;;;;;;;;;;;;;;;;4995422;28;20332;-71
2023/01/03 15:24:45;;;;;;;;;;;;;;;;;;5013423;28;19913;-71
2023/01/03 15:27:10;;;;;;;;;;;;;;;;;;4979304;28;20004;-70
2023/01/03 15:29:36;;;;;;;;;;;;;;;;;;4995392;28;19909;-71
2023/01/03 15:32:02;;;;;;;;;;;;;;;;;;4995348;28;19916;-71
2023/01/03 15:34:27;;;;;;;;;;;;;;;;;;4995373;28;19952;-72
2023/01/03 15:36:53;;;;;;;;;;;;;;;;;;5013047;28;19913;-72
2023/01/03 15:39:18;;;;;;;;;;;;;;;;;;4995431;28;19916;-72
2023/01/03 15:44:27;;;;;;;;;;;;;;;;;;4995283;28;20369;-72
2023/01/03 15:46:52;;;;;;;;;;;;;;;;;;4987013;28;19913;-72
2023/01/03 15:49:18;;;;;;;;;;;;;;;;;;4991781;28;19999;-72
2023/01/03 15:51:43;;;;;;;;;;;;;;;;;;4991328;28;19905;-72
2023/01/03 15:54:08;;;;;;;;;;;;;;;;;;5009264;28;19913;-72
2023/01/03 15:56:33;;;;;;;;;;;;;;;;;;5008719;28;19963;-72
2023/01/03 15:58:58;;;;;;;;;;;;;;;;;;5008921;28;19985;-72
2023/01/03 16:01:24;;;;;;;;;;;;;;;;;;5009156;28;20383;-72
2023/01/03 16:03:49;;;;;;;;;;;;;;;;;;4991469;28;20645;-72
2023/01/03 16:06:15;;;;;;;;;;;;;;;;;;5008810;28;20425;-72
2023/01/03 16:08:41;;;;;;;;;;;;;;;;;;5012662;28;19909;-72
2023/01/03 16:11:06;;;;;;;;;;;;;;;;;;5012831;28;19921;-72
2023/01/03 16:13:31;;;;;;;;;;;;;;;;;;4995554;28;20349;-72
2023/01/03 16:15:57;;;;;;;;;;;;;;;;;;4995303;28;20005;-65
2023/01/03 16:18:22;;;;;;;;;;;;;;;;;;4995235;28;19945;-65
2023/01/03 16:20:47;;;;;;;;;;;;;;;;;;5012990;28;19999;-65
2023/01/03 16:23:12;;;;;;;;;;;;;;;;;;5014030;28;19933;-65
2023/01/03 16:25:38;;;;;;;;;;;;;;;;;;5013879;28;20448;-64
2023/01/03 16:28:03;;;;;;;;;;;;;;;;;;5002380;28;19940;-65
2023/01/03 16:30:28;;;;;;;;;;;;;;;;;;4994444;28;19914;-64
2023/01/03 16:32:53;;;;;;;;;;;;;;;;;;4993833;28;20021;-64
2023/01/03 16:35:19;;;;;;;;;;;;;;;;;;4994173;28;19906;-64
2023/01/03 16:37:44;;;;;;;;;;;;;;;;;;4994068;28;19992;-64
2023/01/03 16:40:09;;;;;;;;;;;;;;;;;;4994341;28;19910;-64
2023/01/03 16:42:35;;;;;;;;;;;;;;;;;;4992575;28;19918;-64
2023/01/03 16:45:00;;;;;;;;;;;;;;;;;;4991236;28;19937;-64
2023/01/03 16:47:25;;;;;;;;;;;;;;;;;;4991849;28;19917;-63
2023/01/03 16:49:50;;;;;;;;;;;;;;;;;;4993754;28;20094;-63
2023/01/03 16:52:16;;;;;;;;;;;;;;;;;;4993550;28;19913;-63
2023/01/03 16:54:41;;;;;;;;;;;;;;;;;;4992936;28;20418;-63
2023/01/03 16:57:06;;;;;;;;;;;;;;;;;;4992335;28;19953;-64
2023/01/03 16:59:31;;;;;;;;;;;;;;;;;;4993923;28;20443;-64
2023/01/03 17:01:56;;;;;;;;;;;;;;;;;;4993546;28;19913;-64
2023/01/03 17:04:22;;;;;;;;;;;;;;;;;;4993543;28;20585;-64
2023/01/03 17:06:47;;;;;;;;;;;;;;;;;;4993449;28;20004;-72
2023/01/03 17:09:12;;;;;;;;;;;;;;;;;;4993770;28;20376;-63
2023/01/03 17:11:37;;;;;;;;;;;;;;;;;;4993688;28;19960;-63
2023/01/03 17:14:03;;;;;;;;;;;;;;;;;;4993290;28;20376;-63
2023/01/03 17:16:28;;;;;;;;;;;;;;;;;;4992254;28;19917;-62
2023/01/03 17:18:54;;;;;;;;;;;;;;;;;;4993380;28;20294;-62
2023/01/03 17:21:19;;;;;;;;;;;;;;;;;;4993516;28;19917;-63
2023/01/03 17:23:46;;;;;;;;;;;;;;;;;;4993651;28;19918;-63
2023/01/03 17:26:11;;;;;;;;;;;;;;;;;;4993103;28;19924;-63
2023/01/03 17:28:36;;;;;;;;;;;;;;;;;;4990735;28;19921;-63
2023/01/03 17:31:01;;;;;;;;;;;;;;;;;;4992150;28;20370;-63
2023/01/03 17:33:26;;;;;;;;;;;;;;;;;;4991546;28;19917;-63
2023/01/03 17:35:52;;;;;;;;;;;;;;;;;;4992135;28;19984;-63
2023/01/03 17:38:17;;;;;;;;;;;;;;;;;;4988783;28;19910;-63
2023/01/03 17:40:43;;;;;;;;;;;;;;;;;;4990021;28;20362;-63
2023/01/03 17:43:08;;;;;;;;;;;;;;;;;;4990520;28;19957;-63
2023/01/03 17:51:01;;;;;;;;;;;;;;;;;;4991176;28;19914;-63
2023/01/03 17:53:26;;;;;;;;;;;;;;;;;;4991328;28;20587;-63
2023/01/03 17:55:51;;;;;;;;;;;;;;;;;;4991016;28;19989;-63
2023/01/03 17:58:16;;;;;;;;;;;;;;;;;;4989573;28;20350;-63
2023/01/03 18:00:41;;;;;;;;;;;;;;;;;;4991172;28;19917;-63
2023/01/03 18:03:07;;;;;;;;;;;;;;;;;;4990976;28;19909;-63
2023/01/03 18:05:32;;;;;;;;;;;;;;;;;;4991477;28;20001;-63
2023/01/03 18:07:57;;;;;;;;;;;;;;;;;;4990963;28;19992;-63